Time;durP1;ratioP1;P1;durP2;ratioP2;P2;SDS_P1;SDS_P2;PMS_P1;PMS_P2;Temp;Humidity;BMP_temperature;BMP_pressure;BME280_temperature;BME280_humidity;BME280_pressure;Samples;Min_cycle;Max_cycle;Signal;HPM_P1;HPM_P2
2022/07/21 00:00:27;;;;;;;32.33;23.25;;;;;;;19.38;88.00;101753.41;6156538;23;20006;-74
2022/07/21 00:02:54;;;;;;;33.80;23.52;;;;;;;19.36;86.96;101754.50;6156828;23;20008;-80
2022/07/21 00:05:19;;;;;;;28.95;22.27;;;;;;;19.18;87.85;101731.56;6156021;23;20010;-81
2022/07/21 00:07:45;;;;;;;30.80;22.33;;;;;;;19.18;88.31;101747.25;6156109;23;20012;-78
2022/07/21 00:10:12;;;;;;;29.33;22.27;;;;;;;19.18;88.78;101739.41;6156815;23;20195;-73
2022/07/21 00:12:37;;;;;;;29.23;21.63;;;;;;;19.15;88.09;101733.56;6156389;23;20009;-71
2022/07/21 00:15:05;;;;;;;31.05;21.77;;;;;;;19.10;88.40;101733.97;6156562;23;20009;-72
2022/07/21 00:17:30;;;;;;;28.58;21.75;;;;;;;19.12;88.21;101741.69;6156544;23;20002;-72
2022/07/21 00:19:56;;;;;;;31.52;22.10;;;;;;;19.15;88.52;101747.50;6156229;23;20093;-72
2022/07/21 00:22:21;;;;;;;26.48;21.77;;;;;;;19.04;87.92;101733.66;6155594;23;20009;-72
2022/07/21 00:24:46;;;;;;;31.92;22.60;;;;;;;19.04;88.30;101746.75;6156416;23;20012;-72
2022/07/21 00:27:12;;;;;;;28.30;21.33;;;;;;;18.98;88.02;101732.41;6156436;23;20085;-72
2022/07/21 00:29:37;;;;;;;30.35;20.83;;;;;;;19.00;88.18;101751.44;6129579;23;20010;-72
2022/07/21 00:32:05;;;;;;;28.55;20.40;;;;;;;18.75;88.84;101715.16;6156674;23;20418;-74
2022/07/21 00:34:31;;;;;;;28.13;21.30;;;;;;;18.87;88.81;101756.84;6156546;23;20013;-72
2022/07/21 00:36:57;;;;;;;27.15;20.25;;;;;;;18.83;89.03;101744.97;6156442;23;20001;-79
2022/07/21 00:39:22;;;;;;;25.83;21.40;;;;;;;18.84;89.06;101749.25;6156480;23;20010;-76
2022/07/21 00:41:47;;;;;;;28.02;21.05;;;;;;;18.88;89.20;101747.22;6156448;23;20005;-81
2022/07/21 00:44:21;;;;;;;28.23;19.85;;;;;;;18.88;88.99;101752.47;6156664;23;20005;-82
2022/07/21 00:46:46;;;;;;;27.73;21.27;;;;;;;18.73;89.26;101735.41;6156199;23;20048;-73
2022/07/21 00:49:11;;;;;;;25.13;19.50;;;;;;;18.80;89.03;101747.84;6156377;23;20021;-80
2022/07/21 00:51:37;;;;;;;26.65;19.88;;;;;;;18.54;89.29;101699.44;6156170;23;20005;-82
2022/07/21 00:54:02;;;;;;;26.10;19.65;;;;;;;18.75;89.75;101731.69;6129813;23;20028;-73
2022/07/21 00:56:27;;;;;;;26.50;20.80;;;;;;;18.63;88.96;101717.81;6155957;23;20033;-72
2022/07/21 00:58:55;;;;;;;28.13;19.55;;;;;;;18.69;89.53;101734.00;6155894;23;19997;-72
2022/07/21 01:01:21;;;;;;;26.85;19.20;;;;;;;18.67;88.86;101728.88;6156379;23;20331;-75
2022/07/21 01:03:46;;;;;;;27.00;19.33;;;;;;;18.65;89.79;101732.59;6155977;23;20008;-75
2022/07/21 01:06:12;;;;;;;24.88;19.65;;;;;;;18.57;90.38;101731.38;6156216;23;20009;-80
2022/07/21 01:08:37;;;;;;;30.08;20.10;;;;;;;18.56;90.07;101729.72;6154191;23;20012;-80
2022/07/21 01:11:03;;;;;;;24.42;19.27;;;;;;;18.56;89.95;101728.91;6155903;23;20415;-82
2022/07/21 01:13:29;;;;;;;29.73;19.52;;;;;;;18.41;89.84;101696.19;6155770;23;20005;-77
2022/07/21 01:15:55;;;;;;;26.65;19.80;;;;;;;18.47;90.26;101712.19;6155777;23;20066;-78
2022/07/21 01:18:20;;;;;;;25.52;19.20;;;;;;;18.47;90.22;101720.03;6155612;23;20002;-76
2022/07/21 01:20:52;;;;;;;25.00;19.50;;;;;;;18.44;90.22;101722.06;6155944;23;20001;-76
2022/07/21 01:23:18;;;;;;;30.20;18.92;;;;;;;18.34;90.43;101706.31;6155476;23;20474;-82
2022/07/21 01:25:51;;;;;;;27.08;19.33;;;;;;;18.32;90.42;101709.06;6155645;23;20006;-80
2022/07/21 01:28:17;;;;;;;25.10;19.42;;;;;;;18.34;90.79;101714.16;6129416;23;20001;-80
2022/07/21 01:30:42;;;;;;;25.08;18.55;;;;;;;18.25;91.06;101705.28;6155973;23;20324;-78
2022/07/21 01:33:08;;;;;;;24.60;19.20;;;;;;;18.35;91.36;101714.03;6156004;23;20080;-79
2022/07/21 01:35:33;;;;;;;26.88;19.80;;;;;;;18.24;91.05;101701.00;6155539;23;20005;-78
2022/07/21 01:38:00;;;;;;;26.55;19.45;;;;;;;18.14;90.94;101688.81;6155270;23;20006;-80
2022/07/21 01:43:10;;;;;;;27.38;19.80;;;;;;;18.24;90.99;101724.53;6155480;23;20096;-76
2022/07/21 01:45:35;;;;;;;26.60;19.23;;;;;;;18.21;91.31;101714.31;6155197;23;20310;-78
2022/07/21 01:48:01;;;;;;;26.50;19.35;;;;;;;18.19;91.66;101711.00;6155316;23;20021;-80
2022/07/21 01:50:26;;;;;;;25.73;20.38;;;;;;;18.15;92.20;101712.19;6155504;23;20013;-81
2022/07/21 01:52:56;;;;;;;25.15;19.92;;;;;;;18.13;92.45;101706.28;6153301;23;20006;-79
2022/07/21 01:55:23;;;;;;;27.00;20.48;;;;;;;18.10;91.87;101688.22;6155135;23;20435;-78
2022/07/21 01:57:48;;;;;;;26.67;19.50;;;;;;;18.32;91.48;101709.06;6155719;23;20005;-75
2022/07/21 02:00:14;;;;;;;28.35;20.60;;;;;;;18.25;91.24;101700.03;6155421;23;20036;-80
2022/07/21 02:02:39;;;;;;;27.45;19.83;;;;;;;18.35;91.03;101721.03;6155809;23;20173;-73
2022/07/21 02:05:05;;;;;;;27.70;21.20;;;;;;;18.36;91.43;101722.69;6155346;23;20340;-78
2022/07/21 02:07:30;;;;;;;29.65;21.38;;;;;;;18.36;91.38;101720.06;6155374;23;20016;-80
2022/07/21 02:09:56;;;;;;;27.30;20.60;;;;;;;18.39;91.08;101719.84;6155172;23;20002;-73
2022/07/21 02:12:21;;;;;;;31.17;21.27;;;;;;;18.38;91.73;101719.94;6155247;23;20081;-79
2022/07/21 02:14:46;;;;;;;28.02;21.48;;;;;;;18.38;90.68;101720.78;6155125;23;20086;-73
2022/07/21 02:17:12;;;;;;;29.58;20.88;;;;;;;18.36;91.51;101720.06;6155736;23;20084;-80
2022/07/21 02:19:37;;;;;;;27.45;19.60;;;;;;;18.39;91.29;101713.78;6155608;23;20423;-81
2022/07/21 02:22:02;;;;;;;25.05;19.33;;;;;;;18.40;91.04;101711.03;6155152;23;20331;-81
2022/07/21 02:24:27;;;;;;;28.70;20.90;;;;;;;18.40;91.22;101712.84;6155120;23;20312;-79
2022/07/21 02:26:53;;;;;;;29.83;20.55;;;;;;;18.37;91.69;101710.44;6155285;23;20005;-73
2022/07/21 02:29:18;;;;;;;28.85;20.42;;;;;;;18.33;92.23;101705.47;6152612;23;20006;-74
2022/07/21 02:31:43;;;;;;;28.90;20.85;;;;;;;18.35;92.14;101706.19;6155254;23;20005;-72
2022/07/21 02:34:09;;;;;;;27.02;20.55;;;;;;;18.30;91.93;101705.75;6155395;23;20076;-75
2022/07/21 02:36:34;;;;;;;28.80;20.83;;;;;;;18.32;91.96;101709.06;6155068;23;20012;-79
2022/07/21 02:39:00;;;;;;;28.58;21.73;;;;;;;18.25;91.87;101702.66;6155309;23;20081;-80
2022/07/21 02:41:25;;;;;;;29.55;21.55;;;;;;;18.32;91.93;101703.81;6154844;23;20052;-79
2022/07/21 02:43:50;;;;;;;28.60;21.10;;;;;;;18.32;91.87;101692.53;6154877;23;20014;-76
2022/07/21 02:46:15;;;;;;;29.48;21.85;;;;;;;18.30;91.96;101697.06;6155318;23;20032;-82
2022/07/21 02:48:41;;;;;;;31.63;22.02;;;;;;;18.31;92.21;101703.94;6155143;23;20092;-78
2022/07/21 02:51:06;;;;;;;30.67;21.05;;;;;;;18.31;92.36;101699.56;6155115;23;20016;-78
2022/07/21 02:53:31;;;;;;;28.65;22.73;;;;;;;18.29;92.53;101704.09;6154745;23;20005;-82
2022/07/21 02:55:57;;;;;;;30.70;22.55;;;;;;;18.31;92.66;101691.72;6154787;23;20076;-81
2022/07/21 02:58:25;;;;;;;29.73;21.77;;;;;;;18.31;92.33;101688.25;6154978;23;20006;-81
2022/07/21 03:00:53;;;;;;;31.58;23.35;;;;;;;18.29;92.38;101683.16;6155165;23;20332;-77
2022/07/21 03:03:20;;;;;;;34.65;22.98;;;;;;;18.19;92.29;101677.03;6155084;23;20005;-83
2022/07/21 03:05:46;;;;;;;31.90;22.88;;;;;;;18.12;92.98;101667.19;6155580;23;20008;-82
2022/07/21 03:08:12;;;;;;;32.10;22.08;;;;;;;18.25;92.81;101688.75;6155162;23;20006;-75
2022/07/21 03:10:38;;;;;;;29.60;22.10;;;;;;;18.26;93.07;101693.03;6155112;23;20028;-73
2022/07/21 03:13:05;;;;;;;31.35;23.38;;;;;;;18.31;92.78;101691.72;6154990;23;20016;-78
2022/07/21 03:15:30;;;;;;;32.70;23.70;;;;;;;18.34;92.14;101694.06;6154723;23;20005;-82
2022/07/21 03:17:57;;;;;;;33.63;24.15;;;;;;;18.32;91.88;101695.16;6154949;23;20009;-72
2022/07/21 03:20:28;;;;;;;31.52;22.08;;;;;;;18.29;92.21;101690.19;6155169;23;20025;-83
2022/07/21 03:22:53;;;;;;;31.75;23.65;;;;;;;18.30;92.32;101684.00;6155062;23;20420;-72
2022/07/21 03:25:19;;;;;;;30.60;22.85;;;;;;;18.28;92.13;101696.34;6154685;23;20064;-78
2022/07/21 03:27:46;;;;;;;31.85;24.17;;;;;;;18.23;92.91;101691.50;6155020;23;20005;-74
2022/07/21 03:30:11;;;;;;;33.63;25.27;;;;;;;18.00;93.01;101662.00;6154948;23;20077;-76
2022/07/21 03:32:37;;;;;;;32.63;23.92;;;;;;;18.24;92.89;101694.94;6154944;23;20498;-72
2022/07/21 03:35:04;;;;;;;38.58;25.48;;;;;;;18.20;92.53;101690.94;6154724;23;20005;-80
2022/07/21 03:37:30;;;;;;;39.60;25.73;;;;;;;18.14;93.20;101696.66;6154427;23;20006;-77
2022/07/21 03:39:55;;;;;;;34.15;25.58;;;;;;;18.17;93.15;101696.38;6129097;23;20367;-77
2022/07/21 03:42:21;;;;;;;33.53;25.85;;;;;;;18.20;93.03;101694.38;6154811;23;20080;-78
2022/07/21 03:44:46;;;;;;;38.20;25.50;;;;;;;18.09;93.17;101667.41;6157158;23;20006;-82
2022/07/21 03:47:11;;;;;;;36.53;26.75;;;;;;;18.12;93.04;101677.66;6156671;23;20017;-74
2022/07/21 03:49:37;;;;;;;37.15;26.55;;;;;;;18.23;93.38;101695.91;6156733;23;20012;-80
2022/07/21 03:52:02;;;;;;;41.63;27.98;;;;;;;18.17;93.37;101691.97;6156550;23;20049;-74
2022/07/21 03:54:27;;;;;;;38.05;26.33;;;;;;;18.18;93.22;101704.09;6156364;23;20397;-77
2022/07/21 03:56:53;;;;;;;39.38;26.17;;;;;;;18.21;93.17;101708.28;6156568;23;20417;-76
2022/07/21 03:59:18;;;;;;;35.65;26.30;;;;;;;18.24;92.42;101714.06;6156498;23;20305;-73
2022/07/21 04:01:43;;;;;;;36.85;27.08;;;;;;;18.25;92.68;101704.44;6157063;23;20006;-76
2022/07/21 04:04:09;;;;;;;34.65;24.52;;;;;;;18.11;92.72;101686.44;6156267;23;20009;-79
2022/07/21 04:06:34;;;;;;;38.58;26.00;;;;;;;18.27;92.42;101713.81;6156309;23;20008;-79
2022/07/21 04:08:59;;;;;;;35.75;24.20;;;;;;;18.32;91.73;101713.44;6129219;23;20006;-78
2022/07/21 04:11:25;;;;;;;34.88;25.10;;;;;;;18.27;92.88;101710.38;6156145;23;20005;-73
2022/07/21 04:13:50;;;;;;;38.30;25.08;;;;;;;18.20;92.16;101696.97;6156669;23;20458;-75
2022/07/21 04:16:15;;;;;;;32.80;23.67;;;;;;;18.21;92.42;101709.09;6156638;23;20009;-75
2022/07/21 04:18:41;;;;;;;32.53;24.45;;;;;;;18.18;92.80;101703.28;6156689;23;20009;-72
2022/07/21 04:21:06;;;;;;;35.90;24.50;;;;;;;18.13;93.10;101706.28;6156054;23;20450;-80
2022/07/21 04:23:32;;;;;;;37.00;25.33;;;;;;;18.18;92.90;101705.88;6156135;23;20008;-72
2022/07/21 04:25:57;;;;;;;39.08;25.05;;;;;;;18.12;92.76;101696.78;6156263;23;20008;-83
2022/07/21 04:28:22;;;;;;;36.50;24.13;;;;;;;18.17;92.62;101704.22;6156580;23;20080;-82
2022/07/21 04:30:48;;;;;;;32.65;23.80;;;;;;;18.17;93.29;101704.22;6156804;23;20037;-81
2022/07/21 04:33:13;;;;;;;33.85;23.42;;;;;;;18.17;92.80;101699.00;6156197;23;20040;-75
2022/07/21 04:35:38;;;;;;;35.67;24.60;;;;;;;18.18;93.14;101690.19;6156240;23;20009;-78
2022/07/21 04:38:04;;;;;;;39.35;24.33;;;;;;;18.10;92.50;101683.00;6156379;23;20442;-72
2022/07/21 04:40:29;;;;;;;36.25;23.83;;;;;;;18.14;93.41;101689.63;6156405;23;20029;-78
2022/07/21 04:42:54;;;;;;;34.75;23.60;;;;;;;18.08;93.02;101684.06;6156426;23;20451;-78
2022/07/21 04:45:20;;;;;;;32.00;23.92;;;;;;;18.13;93.00;101685.34;6156128;23;20412;-82
2022/07/21 04:47:46;;;;;;;33.97;23.95;;;;;;;18.18;93.73;101705.88;6156080;23;20015;-76
2022/07/21 04:50:12;;;;;;;36.42;23.60;;;;;;;18.17;93.90;101712.06;6156068;23;20412;-80
2022/07/21 04:52:38;;;;;;;32.65;23.13;;;;;;;18.17;93.90;101709.47;6156143;23;20052;-81
2022/07/21 04:55:04;;;;;;;34.97;22.38;;;;;;;18.15;93.48;101701.75;6155666;23;20005;-75
2022/07/21 04:57:29;;;;;;;31.70;22.02;;;;;;;18.15;94.03;101703.53;6155828;23;20056;-82
2022/07/21 04:59:55;;;;;;;31.40;22.38;;;;;;;18.15;94.68;101711.38;6156344;23;20012;-82
2022/07/21 05:02:20;;;;;;;32.15;21.65;;;;;;;18.20;93.75;101714.47;6156173;23;20008;-74
2022/07/21 05:04:45;;;;;;;30.45;21.40;;;;;;;18.18;93.79;101714.56;6130160;23;20499;-80
2022/07/21 05:07:11;;;;;;;29.15;20.33;;;;;;;18.19;93.58;101710.16;6155895;23;20420;-82
2022/07/21 05:09:36;;;;;;;32.00;21.27;;;;;;;18.14;93.78;101704.47;6156019;23;20001;-81
2022/07/21 05:12:01;;;;;;;31.58;20.85;;;;;;;18.22;93.36;101712.53;6155749;23;20001;-72
2022/07/21 05:14:27;;;;;;;30.73;19.92;;;;;;;18.24;93.63;101710.63;6155987;23;20006;-77
2022/07/21 05:16:52;;;;;;;32.35;20.20;;;;;;;18.29;93.36;101711.94;6155714;23;20009;-73
2022/07/21 05:19:17;;;;;;;29.25;20.67;;;;;;;18.32;92.97;101711.66;6156277;23;20412;-80
2022/07/21 05:21:43;;;;;;;26.60;16.88;;;;;;;18.59;92.34;101705.97;6155842;23;20008;-75
2022/07/21 05:24:09;;;;;;;30.73;18.13;;;;;;;18.87;90.63;101707.09;6155865;23;20072;-79
2022/07/21 05:26:35;;;;;;;23.77;16.75;;;;;;;18.98;89.30;101708.03;6155618;23;20005;-77
2022/07/21 05:29:01;;;;;;;29.60;18.58;;;;;;;19.12;88.70;101700.63;6155894;23;20076;-86
2022/07/21 05:31:26;;;;;;;32.85;17.63;;;;;;;19.20;88.28;101705.22;6155657;23;20416;-78
2022/07/21 05:33:51;;;;;;;28.55;18.25;;;;;;;19.24;87.21;101703.16;6155773;23;20013;-80
2022/07/21 05:36:18;;;;;;;24.00;17.00;;;;;;;19.21;86.93;101688.56;6155810;23;20379;-76
2022/07/21 05:38:43;;;;;;;27.15;17.80;;;;;;;19.23;86.60;101675.31;6155792;23;20009;-86
2022/07/21 05:41:08;;;;;;;24.17;16.33;;;;;;;19.33;86.51;101697.13;6156091;23;20196;-74
2022/07/21 05:43:34;;;;;;;24.83;17.08;;;;;;;19.38;86.69;101715.91;6155510;23;20008;-76
2022/07/21 05:45:59;;;;;;;25.92;16.45;;;;;;;19.46;85.81;101700.34;6155558;23;20056;-85
2022/07/21 05:48:25;;;;;;;26.25;16.17;;;;;;;19.53;85.12;101706.72;6155540;23;20014;-84
2022/07/21 05:50:50;;;;;;;24.02;15.13;;;;;;;19.54;84.67;101692.66;6155290;23;20068;-75
2022/07/21 05:53:15;;;;;;;23.73;14.95;;;;;;;19.63;84.11;101701.53;6155662;23;20009;-82
2022/07/21 05:55:41;;;;;;;22.98;16.05;;;;;;;19.62;84.26;101698.09;6155769;23;20096;-83
2022/07/21 05:58:06;;;;;;;23.52;15.32;;;;;;;19.63;83.62;101701.53;6155657;23;20002;-87
2022/07/21 06:00:32;;;;;;;21.80;14.35;;;;;;;19.63;83.58;101696.31;6155486;23;20015;-85
2022/07/21 06:02:57;;;;;;;23.23;14.98;;;;;;;19.52;83.45;101672.81;6154796;23;20033;-81
2022/07/21 06:05:22;;;;;;;24.90;16.35;;;;;;;19.74;83.49;101694.38;6155401;23;20008;-77
2022/07/21 06:07:48;;;;;;;20.30;14.63;;;;;;;19.82;83.13;101691.09;6154060;23;20009;-76
2022/07/21 06:10:14;;;;;;;22.90;15.13;;;;;;;19.89;82.66;101697.47;6129292;23;20010;-85
2022/07/21 06:12:40;;;;;;;22.50;14.55;;;;;;;19.96;81.69;101693.34;6155093;23;20005;-84
2022/07/21 06:15:06;;;;;;;22.13;15.90;;;;;;;19.97;81.26;101692.38;6129020;23;20104;-75
2022/07/21 06:17:42;;;;;;;25.40;17.25;;;;;;;20.03;81.35;101677.88;6155469;23;20005;-82
2022/07/21 06:20:08;;;;;;;26.65;16.92;;;;;;;20.34;79.92;101692.50;6155498;23;20006;-81
2022/07/21 06:22:34;;;;;;;24.85;16.17;;;;;;;20.49;79.60;101692.13;6155675;23;20037;-74
2022/07/21 06:25:00;;;;;;;28.73;18.52;;;;;;;20.44;80.15;101687.28;6155636;23;20009;-74
2022/07/21 06:27:25;;;;;;;27.35;16.02;;;;;;;20.81;78.62;101682.09;6154675;23;20012;-85
2022/07/21 06:29:50;;;;;;;28.42;17.98;;;;;;;21.12;77.43;101689.75;6155429;23;20088;-75
2022/07/21 06:32:16;;;;;;;29.70;17.38;;;;;;;21.46;75.35;101672.47;6152795;23;20028;-85
2022/07/21 06:34:41;;;;;;;26.73;17.08;;;;;;;22.21;72.99;101690.66;6128385;23;20013;-85
2022/07/21 06:37:06;;;;;;;27.85;17.58;;;;;;;23.00;70.19;101687.94;6155508;23;20013;-76
2022/07/21 06:39:32;;;;;;;27.65;18.08;;;;;;;23.42;68.20;101695.06;6155383;23;20005;-82
2022/07/21 06:41:57;;;;;;;27.50;16.63;;;;;;;23.56;67.09;101693.59;6155097;23;20412;-75
2022/07/21 06:44:24;;;;;;;30.33;18.55;;;;;;;23.17;67.46;101694.13;6155078;23;20434;-77
2022/07/21 06:46:50;;;;;;;30.77;19.48;;;;;;;22.93;68.49;101692.19;6155127;23;20004;-86
2022/07/21 06:49:15;;;;;;;35.97;19.42;;;;;;;22.84;69.16;101698.41;6153626;23;20364;-77
2022/07/21 06:51:41;;;;;;;26.63;18.33;;;;;;;22.74;69.00;101706.38;6154904;23;20001;-74
2022/07/21 06:54:06;;;;;;;31.73;17.98;;;;;;;22.55;69.13;101699.50;6156234;23;20006;-76
2022/07/21 06:56:31;;;;;;;27.27;17.75;;;;;;;22.47;70.23;101699.44;6155361;23;20040;-75
2022/07/21 06:58:57;;;;;;;28.67;18.65;;;;;;;22.41;70.45;101689.50;6155051;23;20013;-80
2022/07/21 07:01:22;;;;;;;27.75;18.48;;;;;;;22.35;69.97;101713.00;6154803;23;20077;-75
2022/07/21 07:03:47;;;;;;;34.05;21.92;;;;;;;22.11;71.21;101717.03;6154877;23;20039;-87
2022/07/21 07:06:13;;;;;;;32.78;20.83;;;;;;;21.90;71.37;101719.09;6155183;23;20419;-77
2022/07/21 07:08:39;;;;;;;31.35;20.20;;;;;;;21.87;71.95;101709.72;6155079;23;20079;-84
2022/07/21 07:11:05;;;;;;;33.67;21.80;;;;;;;21.77;72.35;101714.22;6154920;23;20005;-77
2022/07/21 07:13:30;;;;;;;30.38;21.95;;;;;;;21.47;73.14;101699.56;6154770;23;20328;-86
2022/07/21 07:15:55;;;;;;;31.83;20.58;;;;;;;21.39;73.46;101684.53;6128733;23;20106;-78
2022/07/21 07:18:23;;;;;;;31.15;21.02;;;;;;;21.46;73.92;101717.16;6156128;23;20009;-80
2022/07/21 07:20:50;;;;;;;34.65;24.02;;;;;;;21.30;74.82;101711.69;6157341;23;20012;-84
2022/07/21 07:23:15;;;;;;;34.13;22.13;;;;;;;21.28;74.54;101699.66;6130589;23;20052;-85
2022/07/21 07:25:41;;;;;;;32.38;23.67;;;;;;;21.12;74.97;101697.63;6157088;23;20009;-80
2022/07/21 07:28:08;;;;;;;38.80;25.05;;;;;;;21.10;75.41;101710.06;6156641;23;20064;-77
2022/07/21 07:30:34;;;;;;;33.15;21.77;;;;;;;21.27;75.35;101727.75;6154238;23;20068;-82
2022/07/21 07:32:59;;;;;;;37.88;24.00;;;;;;;21.10;75.68;101715.31;6156806;23;20005;-79
2022/07/21 07:35:25;;;;;;;39.75;23.92;;;;;;;20.99;75.73;101716.31;6156723;23;20433;-85
2022/07/21 07:37:50;;;;;;;41.03;26.02;;;;;;;20.85;76.58;101696.63;6156932;23;20016;-82
2022/07/21 07:40:19;;;;;;;30.52;21.13;;;;;;;21.11;75.86;101719.59;6156963;23;20006;-76
2022/07/21 07:42:45;;;;;;;37.10;25.52;;;;;;;20.90;76.58;101720.63;6156718;23;20020;-78
2022/07/21 07:45:12;;;;;;;38.17;24.05;;;;;;;20.81;76.66;101720.66;6156891;23;20072;-76
2022/07/21 07:47:37;;;;;;;37.60;24.85;;;;;;;20.31;77.27;101663.94;6156256;23;20013;-85
2022/07/21 07:50:06;;;;;;;31.25;19.88;;;;;;;20.67;77.52;101719.31;6156558;23;20036;-85
2022/07/21 07:52:31;;;;;;;41.97;25.55;;;;;;;20.61;78.04;101725.09;6156282;23;20013;-82
2022/07/21 07:54:57;;;;;;;36.00;23.90;;;;;;;20.59;78.86;101721.81;6156413;23;20076;-80
2022/07/21 07:57:22;;;;;;;38.03;23.65;;;;;;;20.62;78.74;101721.50;6156499;23;20423;-75
2022/07/21 07:59:47;;;;;;;28.95;19.95;;;;;;;20.70;78.84;101726.88;6156585;23;20029;-86
2022/07/21 08:02:13;;;;;;;40.97;24.60;;;;;;;20.20;85.09;101737.50;6156527;23;20048;-85
2022/07/21 08:04:40;;;;;;;36.78;22.67;;;;;;;19.68;87.69;101726.41;6156755;23;20051;-72
2022/07/21 08:07:06;;;;;;;34.47;21.15;;;;;;;19.27;90.77;101743.03;6129476;23;20068;-84
2022/07/21 08:09:31;;;;;;;27.50;18.17;;;;;;;18.72;92.67;101694.50;6156366;23;20036;-74
2022/07/21 08:11:57;;;;;;;31.27;18.08;;;;;;;18.73;95.13;101735.41;6156625;23;19998;-81
2022/07/21 08:14:22;;;;;;;20.85;14.95;;;;;;;18.48;96.27;101742.59;6156766;23;20124;-86
2022/07/21 08:16:48;;;;;;;19.80;14.68;;;;;;;18.27;98.00;101741.75;6156570;23;20006;-73
2022/07/21 08:19:13;;;;;;;21.48;14.75;;;;;;;18.20;100.00;101740.59;6156551;23;20319;-74
2022/07/21 08:21:38;;;;;;;21.35;13.88;;;;;;;18.10;100.00;101737.06;6155341;23;20005;-75
2022/07/21 08:24:04;;;;;;;21.60;14.93;;;;;;;18.07;100.00;101748.56;6130951;23;20010;-85
2022/07/21 08:26:30;;;;;;;23.27;16.40;;;;;;;17.84;100.00;101705.16;6157188;23;20077;-74
2022/07/21 08:28:57;;;;;;;20.30;14.00;;;;;;;18.18;100.00;101739.88;6155882;23;20036;-87
2022/07/21 08:31:23;;;;;;;23.15;13.68;;;;;;;18.11;100.00;101730.88;6156111;23;20487;-72
2022/07/21 08:33:49;;;;;;;19.38;14.15;;;;;;;17.98;100.00;101697.88;6156155;23;20029;-78
2022/07/21 08:36:15;;;;;;;21.38;14.23;;;;;;;18.13;100.00;101711.50;6156571;23;20339;-76
2022/07/21 08:38:40;;;;;;;17.73;13.65;;;;;;;18.22;100.00;101734.28;6156253;23;20001;-78
2022/07/21 08:41:08;;;;;;;21.10;14.52;;;;;;;18.18;100.00;101724.19;6159117;23;20017;-92
2022/07/21 08:43:33;;;;;;;20.90;15.30;;;;;;;18.20;100.00;101725.75;6153710;23;20001;-73
2022/07/21 08:46:00;;;;;;;20.50;14.65;;;;;;;18.34;100.00;101735.91;6156293;23;20443;-81
2022/07/21 08:48:26;;;;;;;21.48;14.95;;;;;;;18.26;100.00;101711.31;6155824;23;20014;-81
2022/07/21 08:50:52;;;;;;;20.80;14.75;;;;;;;18.31;100.00;101724.88;6156540;23;20033;-77
2022/07/21 08:53:17;;;;;;;19.63;15.32;;;;;;;18.37;100.00;101706.03;6156458;23;20024;-80
2022/07/21 08:55:43;;;;;;;23.92;15.10;;;;;;;18.44;100.00;101706.38;6156116;23;20009;-74
2022/07/21 08:58:11;;;;;;;18.60;13.45;;;;;;;18.58;99.95;101734.84;6157154;23;20012;-76
2022/07/21 09:00:39;;;;;;;18.67;13.80;;;;;;;18.46;100.00;101725.38;6153480;23;20028;-73
2022/07/21 09:03:16;;;;;;;20.42;14.13;;;;;;;18.51;100.00;101737.16;6156063;23;20080;-84
2022/07/21 09:05:57;;;;;;;20.05;14.50;;;;;;;18.51;100.00;101733.69;6155879;23;20451;-76
2022/07/21 09:08:33;;;;;;;18.80;13.38;;;;;;;18.63;100.00;101737.91;6156496;23;20005;-77
2022/07/21 09:11:21;;;;;;;19.65;14.30;;;;;;;18.67;100.00;101739.34;6156500;23;20417;-75
2022/07/21 09:14:16;;;;;;;20.40;13.88;;;;;;;18.77;100.00;101737.63;6155440;23;20006;-78
2022/07/21 09:16:57;;;;;;;19.10;14.15;;;;;;;18.77;100.00;101721.09;6151038;23;20428;-84
2022/07/21 09:19:28;;;;;;;21.38;14.70;;;;;;;18.88;100.00;101724.50;6129849;23;20006;-80
2022/07/21 09:22:00;;;;;;;17.52;13.90;;;;;;;19.00;100.00;101746.19;6129846;23;20088;-75
2022/07/21 09:24:33;;;;;;;17.80;14.13;;;;;;;19.01;99.77;101745.22;6156050;23;20005;-76
2022/07/21 09:27:01;;;;;;;18.65;14.18;;;;;;;18.95;99.03;101745.72;6129537;23;20080;-85
2022/07/21 09:29:34;;;;;;;18.08;14.88;;;;;;;18.95;100.00;101750.97;6155804;23;20096;-76
2022/07/21 09:32:16;;;;;;;16.70;13.23;;;;;;;19.03;99.35;101745.09;6155936;23;20013;-86
2022/07/21 09:34:41;;;;;;;15.80;12.07;;;;;;;19.08;98.94;101749.00;6155616;23;20033;-77
2022/07/21 09:37:07;;;;;;;14.48;11.95;;;;;;;19.16;98.49;101757.00;6155723;23;20367;-87
2022/07/21 09:39:51;;;;;;;16.10;12.45;;;;;;;19.27;98.68;101763.13;6155634;23;20028;-74
2022/07/21 09:42:23;;;;;;;14.07;12.00;;;;;;;19.11;98.64;101748.72;6155154;23;20073;-75
2022/07/21 09:45:00;;;;;;;14.15;12.02;;;;;;;18.99;98.71;101749.78;6155493;23;20002;-74
2022/07/21 09:47:28;;;;;;;13.52;11.15;;;;;;;18.82;98.82;101751.16;6155402;23;20045;-76
2022/07/21 09:49:55;;;;;;;13.90;12.02;;;;;;;18.84;99.66;101769.34;6155779;23;20427;-82
2022/07/21 09:52:29;;;;;;;12.13;9.68;;;;;;;18.81;99.95;101770.44;6155612;23;20355;-82
2022/07/21 09:54:56;;;;;;;11.93;9.57;;;;;;;18.60;98.82;101738.19;6153982;23;20454;-81
2022/07/21 09:57:21;;;;;;;12.80;9.02;;;;;;;18.77;98.36;101773.44;6155704;23;20075;-79
2022/07/21 09:59:48;;;;;;;12.55;9.82;;;;;;;18.83;98.88;101772.94;6155392;23;20001;-78
2022/07/21 10:02:18;;;;;;;10.60;9.27;;;;;;;18.90;98.71;101780.16;6155788;23;20024;-80
2022/07/21 10:04:46;;;;;;;12.93;8.65;;;;;;;18.91;97.14;101776.56;6155871;23;20032;-83
2022/07/21 10:07:13;;;;;;;12.48;9.27;;;;;;;18.78;97.84;101768.09;6155659;23;20052;-85
2022/07/21 10:09:39;;;;;;;11.80;8.48;;;;;;;18.90;97.44;101771.47;6155597;23;20052;-77
2022/07/21 10:12:05;;;;;;;11.65;9.02;;;;;;;19.05;97.80;101790.28;6155362;23;20327;-78
2022/07/21 10:14:31;;;;;;;10.60;8.52;;;;;;;19.03;97.09;101789.59;6155235;23;20017;-74
2022/07/21 10:16:56;;;;;;;10.55;8.55;;;;;;;18.94;97.71;101796.44;6155069;23;20006;-82
2022/07/21 10:19:28;;;;;;;10.23;8.40;;;;;;;18.89;99.01;101781.13;6155667;23;20068;-83
2022/07/21 10:22:09;;;;;;;9.57;7.40;;;;;;;19.11;97.73;101801.09;6155344;23;20010;-79
2022/07/21 10:24:36;;;;;;;8.85;6.97;;;;;;;19.17;96.56;101784.88;6155369;23;20012;-86
2022/07/21 10:27:05;;;;;;;8.68;6.45;;;;;;;19.39;94.92;101807.47;6155622;23;20005;-87
2022/07/21 10:30:00;;;;;;;10.10;6.22;;;;;;;19.36;94.48;101809.50;6154968;23;20005;-83
2022/07/21 10:32:31;;;;;;;8.05;6.28;;;;;;;19.40;94.97;101811.75;6155367;23;20332;-91
2022/07/21 10:34:57;;;;;;;;;;;;;;;19.49;93.58;101810.97;6155905;23;20005;-76
2022/07/21 10:37:49;;;;;;;7.97;6.20;;;;;;;19.46;92.91;101802.50;6128688;23;19915;-87
2022/07/21 10:40:20;;;;;;;8.75;6.68;;;;;;;19.46;92.59;101820.84;6149272;23;20463;-84
2022/07/21 10:43:05;;;;;;;9.05;6.60;;;;;;;19.61;92.59;101816.97;6154911;23;20033;-84
2022/07/21 10:45:32;;;;;;;8.82;6.80;;;;;;;19.66;91.25;101821.81;6155137;23;20009;-79
2022/07/21 10:47:58;;;;;;;10.68;6.70;;;;;;;19.70;91.30;101828.47;6154667;23;20067;-78
2022/07/21 10:50:35;;;;;;;10.25;6.75;;;;;;;19.88;91.16;101828.69;6155301;23;20006;-74
2022/07/21 10:53:18;;;;;;;9.40;6.55;;;;;;;19.92;89.31;101814.31;6154499;23;20029;-87
2022/07/21 10:55:53;;;;;;;10.27;7.38;;;;;;;19.98;88.87;101829.53;6154721;23;20012;-86
2022/07/21 10:58:29;;;;;;;12.32;8.15;;;;;;;19.65;89.69;101797.38;6155125;23;20001;-77
2022/07/21 11:01:02;;;;;;;12.32;8.00;;;;;;;19.78;90.15;101828.63;6155025;23;20001;-91
2022/07/21 11:03:37;;;;;;;11.25;7.78;;;;;;;19.52;90.41;101783.66;6155055;23;20025;-76
2022/07/21 11:06:06;;;;;;;13.73;8.43;;;;;;;19.66;89.38;101829.66;6155042;23;20368;-89
2022/07/21 11:08:53;;;;;;;12.15;7.85;;;;;;;19.61;89.96;101824.84;6154747;23;20502;-75
2022/07/21 11:11:20;;;;;;;11.15;8.30;;;;;;;19.48;90.99;101829.44;6154341;23;20012;-87